Time;durP1;ratioP1;P1;durP2;ratioP2;P2;SDS_P1;SDS_P2;PMS_P1;PMS_P2;Temp;Humidity;BMP_temperature;BMP_pressure;BME280_temperature;BME280_humidity;BME280_pressure;Samples;Min_cycle;Max_cycle;Signal;HPM_P1;HPM_P2
2021/12/07 00:00:18;;;;;;;6.53;4.43;;;1.40;99.90;;;;;;4999175;28;20030;-70
2021/12/07 00:02:43;;;;;;;6.75;4.15;;;1.50;99.90;;;;;;4999349;28;20031;-70
2021/12/07 00:05:09;;;;;;;6.53;4.15;;;1.50;99.90;;;;;;4999810;28;20480;-70
2021/12/07 00:07:35;;;;;;;9.27;3.83;;;1.60;99.90;;;;;;5000778;28;20018;-70
2021/12/07 00:10:02;;;;;;;6.13;3.90;;;1.60;99.90;;;;;;4999895;28;20026;-69
2021/12/07 00:12:34;;;;;;;5.60;3.78;;;1.60;99.90;;;;;;5001012;28;20109;-70
2021/12/07 00:15:02;;;;;;;6.32;3.70;;;1.60;99.90;;;;;;4999950;28;20033;-70
2021/12/07 00:17:30;;;;;;;6.97;3.80;;;1.70;99.90;;;;;;4999032;28;20040;-70
2021/12/07 00:19:56;;;;;;;6.82;3.55;;;1.70;99.90;;;;;;5006788;28;20087;-70
2021/12/07 00:22:22;;;;;;;6.85;4.22;;;1.80;99.90;;;;;;5012304;28;20042;-70
2021/12/07 00:24:48;;;;;;;6.00;3.33;;;1.80;99.90;;;;;;5010929;28;20459;-71
2021/12/07 00:27:13;;;;;;;4.75;3.45;;;1.90;99.90;;;;;;5012560;28;20041;-70
2021/12/07 00:29:42;;;;;;;4.80;3.40;;;1.90;99.90;;;;;;5012016;28;20421;-71
2021/12/07 00:32:21;;;;;;;5.22;3.45;;;1.90;99.90;;;;;;5011469;28;20109;-70
2021/12/07 00:37:29;;;;;;;5.80;3.28;;;2.00;99.90;;;;;;5012244;28;20026;-70
2021/12/07 00:39:55;;;;;;;6.53;3.45;;;2.00;99.90;;;;;;5011085;28;20026;-70
2021/12/07 00:42:22;;;;;;;5.53;3.33;;;2.00;99.90;;;;;;5011361;28;20040;-71
2021/12/07 00:44:48;;;;;;;4.75;3.38;;;2.20;99.90;;;;;;5011358;28;20053;-70
2021/12/07 00:47:15;;;;;;;6.35;3.28;;;2.10;99.90;;;;;;5012176;28;20069;-70
2021/12/07 00:49:43;;;;;;;5.22;3.38;;;2.20;99.90;;;;;;5011615;28;20018;-71
2021/12/07 00:52:09;;;;;;;4.88;3.42;;;2.10;99.90;;;;;;5016102;28;20037;-70
2021/12/07 00:54:35;;;;;;;6.63;3.78;;;2.10;99.90;;;;;;5016284;28;20057;-70
2021/12/07 00:57:02;;;;;;;7.43;3.80;;;2.10;99.90;;;;;;5014876;28;20115;-70
2021/12/07 00:59:29;;;;;;;6.72;3.78;;;2.10;99.90;;;;;;5002136;28;20026;-70
2021/12/07 01:01:56;;;;;;;6.03;3.67;;;2.00;99.90;;;;;;4996624;28;20034;-70
2021/12/07 01:04:23;;;;;;;6.55;3.92;;;1.90;99.90;;;;;;4998726;28;20037;-70
2021/12/07 01:25:50;;;;;;;4.85;3.67;;;1.60;99.90;;;;;;5014712;28;20129;-70
2021/12/07 01:28:30;;;;;;;5.82;3.78;;;1.60;99.90;;;;;;5015501;28;20034;-70
2021/12/07 01:31:12;;;;;;;4.78;3.50;;;1.60;99.90;;;;;;5014595;28;20030;-70
2021/12/07 01:39:29;;;;;;;5.82;3.65;;;1.60;99.90;;;;;;5015334;28;20057;-70
2021/12/07 01:44:21;;;;;;;5.93;3.35;;;1.50;99.90;;;;;;5014438;28;20034;-70
2021/12/07 02:00:03;;;;;;;5.13;3.15;;;1.60;99.90;;;;;;5013952;28;20037;-70
2021/12/07 02:02:29;;;;;;;5.03;3.50;;;1.70;99.90;;;;;;5014297;28;20374;-70
2021/12/07 02:04:56;;;;;;;6.40;3.15;;;1.80;99.90;;;;;;5013740;28;20022;-70
2021/12/07 02:07:23;;;;;;;5.43;3.60;;;1.80;99.90;;;;;;5014840;28;20029;-70
2021/12/07 02:09:54;;;;;;;5.40;4.03;;;1.80;99.90;;;;;;5014282;28;20037;-71
2021/12/07 02:12:20;;;;;;;6.38;3.85;;;1.80;99.90;;;;;;5013986;28;20533;-70
2021/12/07 02:14:46;;;;;;;6.78;4.47;;;1.70;99.90;;;;;;5013469;28;20049;-71
2021/12/07 02:17:17;;;;;;;5.53;4.05;;;1.70;99.90;;;;;;5014733;28;20026;-70
2021/12/07 02:19:46;;;;;;;5.35;3.88;;;1.70;99.90;;;;;;5014304;28;20022;-71
2021/12/07 02:22:11;;;;;;;5.10;3.65;;;1.70;99.90;;;;;;5014266;28;20037;-70
2021/12/07 02:24:39;;;;;;;4.43;2.90;;;1.60;99.90;;;;;;5014519;28;20026;-70
2021/12/07 02:27:06;;;;;;;5.80;3.53;;;1.60;99.90;;;;;;5013558;28;20054;-70
2021/12/07 02:29:32;;;;;;;4.30;3.17;;;1.60;99.90;;;;;;5014521;28;20093;-70
2021/12/07 02:31:59;;;;;;;5.80;3.50;;;1.70;99.90;;;;;;5013541;28;20033;-70
2021/12/07 02:34:26;;;;;;;4.57;3.10;;;1.70;99.90;;;;;;5012801;28;20025;-70
2021/12/07 02:36:53;;;;;;;5.00;2.75;;;1.80;99.90;;;;;;5013598;28;20025;-70
2021/12/07 02:39:27;;;;;;;3.67;2.80;;;1.80;99.90;;;;;;5014231;28;20057;-70
2021/12/07 02:41:53;;;;;;;2.47;2.10;;;1.90;99.90;;;;;;5013293;28;20030;-70
2021/12/07 02:44:18;;;;;;;2.88;2.28;;;1.90;99.90;;;;;;5014060;28;20329;-70
2021/12/07 02:46:50;;;;;;;3.45;2.58;;;1.90;99.90;;;;;;5013622;28;20069;-72
2021/12/07 02:49:16;;;;;;;2.88;2.08;;;2.00;99.90;;;;;;5014001;28;20025;-70
2021/12/07 02:51:41;;;;;;;2.83;2.05;;;2.10;99.90;;;;;;5013861;28;20459;-70
2021/12/07 02:54:07;;;;;;;3.95;2.53;;;2.10;99.90;;;;;;5012926;28;20438;-70
2021/12/07 02:56:33;;;;;;;3.17;2.28;;;2.10;99.90;;;;;;5013869;28;20072;-70
2021/12/07 02:59:02;;;;;;;2.92;2.20;;;2.10;99.90;;;;;;5003567;28;20031;-70
2021/12/07 03:01:32;;;;;;;3.00;2.28;;;2.10;99.90;;;;;;4994771;28;20022;-70
2021/12/07 03:04:07;;;;;;;3.25;2.10;;;2.10;99.90;;;;;;5001348;28;20039;-71
2021/12/07 03:07:15;;;;;;;2.83;2.30;;;2.10;99.90;;;;;;5006422;28;20022;-71
2021/12/07 03:28:27;;;;;;;3.90;1.92;;;2.00;99.90;;;;;;5033126;28;20029;-69
2021/12/07 03:30:53;;;;;;;3.33;1.70;;;2.00;99.90;;;;;;5032200;28;20025;-70
2021/12/07 03:33:19;;;;;;;2.92;1.70;;;2.00;99.90;;;;;;5033007;28;20060;-70
2021/12/07 03:35:51;;;;;;;2.55;1.85;;;1.90;99.90;;;;;;5006026;28;20089;-71
2021/12/07 03:38:17;;;;;;;2.05;1.63;;;1.90;99.90;;;;;;4993491;28;20030;-69
2021/12/07 03:40:43;;;;;;;2.10;1.67;;;1.90;99.90;;;;;;4992394;28;20080;-70
2021/12/07 03:43:10;;;;;;;2.85;2.05;;;1.80;99.90;;;;;;4992678;28;20061;-69
2021/12/07 03:45:36;;;;;;;5.47;2.95;;;1.80;99.90;;;;;;4993171;28;20050;-69
2021/12/07 03:48:05;;;;;;;6.95;2.92;;;1.80;99.90;;;;;;4992500;28;20046;-70
2021/12/07 03:50:32;;;;;;;2.75;2.08;;;1.80;99.90;;;;;;4993059;28;20114;-70
2021/12/07 03:52:57;;;;;;;6.07;1.83;;;1.70;99.90;;;;;;4992512;28;20456;-69
2021/12/07 03:55:23;;;;;;;2.53;1.30;;;1.80;99.90;;;;;;4993273;28;20065;-69
2021/12/07 03:57:49;;;;;;;4.03;1.30;;;1.80;99.90;;;;;;4992522;28;20054;-71
2021/12/07 04:00:19;;;;;;;2.35;1.20;;;1.80;99.90;;;;;;4992859;28;20057;-70
2021/12/07 04:02:46;;;;;;;1.35;1.10;;;1.90;99.90;;;;;;4993517;28;20078;-70
2021/12/07 04:05:15;;;;;;;1.98;1.52;;;1.90;99.90;;;;;;5001308;28;20077;-70
2021/12/07 04:07:42;;;;;;;2.53;1.23;;;1.90;99.90;;;;;;5012730;28;20030;-70
2021/12/07 04:10:10;;;;;;;2.75;1.73;;;2.00;99.90;;;;;;5011852;28;20051;-70
2021/12/07 04:12:36;;;;;;;4.63;1.48;;;2.00;99.90;;;;;;5012440;28;20042;-70
2021/12/07 04:15:07;;;;;;;2.88;1.50;;;2.00;99.90;;;;;;5011324;28;20069;-69
2021/12/07 04:17:33;;;;;;;3.10;1.38;;;2.10;99.90;;;;;;5011725;28;20034;-69
2021/12/07 04:19:58;;;;;;;3.53;1.40;;;2.10;99.90;;;;;;5011687;28;20447;-70
2021/12/07 04:22:25;;;;;;;3.13;1.58;;;2.20;99.90;;;;;;5012635;28;20112;-69
2021/12/07 04:24:51;;;;;;;1.23;1.05;;;2.10;99.90;;;;;;5010237;28;20033;-70
2021/12/07 04:27:18;;;;;;;4.55;1.00;;;2.20;99.90;;;;;;5012345;28;20026;-69
2021/12/07 04:29:44;;;;;;;2.65;0.90;;;2.30;99.90;;;;;;5012234;28;20026;-70
2021/12/07 04:32:10;;;;;;;2.88;1.13;;;2.20;99.90;;;;;;5011236;28;20045;-71
2021/12/07 04:34:36;;;;;;;5.13;0.90;;;2.20;99.90;;;;;;5006623;28;20436;-69
2021/12/07 04:37:01;;;;;;;4.63;1.02;;;2.20;99.90;;;;;;4996662;28;20384;-69
2021/12/07 04:39:27;;;;;;;1.90;0.90;;;2.20;99.90;;;;;;5000938;28;20054;-68
2021/12/07 04:41:53;;;;;;;2.45;0.68;;;2.30;99.90;;;;;;4999278;28;20430;-71
2021/12/07 04:44:22;;;;;;;3.35;0.70;;;2.30;99.90;;;;;;4999775;28;20529;-70
2021/12/07 04:47:08;;;;;;;1.75;0.70;;;2.40;99.90;;;;;;5000367;28;20061;-71
2021/12/07 04:50:00;;;;;;;0.93;0.80;;;2.40;99.90;;;;;;5001598;28;20030;-70
2021/12/07 04:57:55;;;;;;;4.68;1.20;;;2.30;99.90;;;;;;4992855;28;20081;-70
2021/12/07 05:00:23;;;;;;;3.70;1.20;;;2.30;99.90;;;;;;5011918;28;20026;-69
2021/12/07 05:02:56;;;;;;;4.07;1.05;;;2.30;99.90;;;;;;5011691;28;20109;-71
2021/12/07 05:05:27;;;;;;;3.78;1.00;;;2.30;99.90;;;;;;5011846;28;20026;-70
2021/12/07 05:07:55;;;;;;;1.52;0.85;;;2.40;99.90;;;;;;5011204;28;20364;-71
2021/12/07 05:10:31;;;;;;;3.92;1.00;;;2.40;99.90;;;;;;5012193;28;20449;-70
2021/12/07 05:37:40;;;;;;;6.07;1.50;;;1.60;99.90;;;;;;5011672;28;20033;-70
2021/12/07 05:37:47;;;;;;;3.55;1.77;;;1.60;99.90;;;;;;5012395;28;20061;-70
2021/12/07 05:40:28;;;;;;;6.78;1.50;;;1.60;99.90;;;;;;5014686;28;20053;-70
2021/12/07 05:42:55;;;;;;;3.65;1.40;;;1.50;99.90;;;;;;5013752;28;20022;-71
2021/12/07 05:45:34;;;;;;;3.25;1.45;;;1.60;99.90;;;;;;5003317;28;20051;-70
2021/12/07 05:48:03;;;;;;;5.90;1.42;;;1.50;99.90;;;;;;4997646;28;20462;-70
2021/12/07 05:50:30;;;;;;;4.78;1.20;;;1.60;99.90;;;;;;4998445;28;20065;-71
2021/12/07 05:52:57;;;;;;;3.97;1.70;;;1.50;99.90;;;;;;5003133;28;20061;-71
2021/12/07 05:55:23;;;;;;;2.97;1.27;;;1.60;99.90;;;;;;5006300;28;20033;-70
2021/12/07 05:57:49;;;;;;;8.98;1.75;;;1.60;99.90;;;;;;5005807;28;20130;-71
2021/12/07 06:00:24;;;;;;;8.30;2.13;;;1.60;99.90;;;;;;4998223;28;20105;-71
2021/12/07 06:02:58;;;;;;;5.32;1.75;;;1.60;99.90;;;;;;5010591;28;20065;-72
2021/12/07 06:05:25;;;;;;;12.20;1.48;;;1.70;99.90;;;;;;5002802;28;20105;-71
2021/12/07 06:07:54;;;;;;;7.43;1.55;;;1.60;99.90;;;;;;5026124;28;20486;-71
2021/12/07 06:10:21;;;;;;;7.60;1.50;;;1.70;99.90;;;;;;4995106;28;20493;-70
2021/12/07 06:12:46;;;;;;;8.75;1.40;;;1.80;99.90;;;;;;4995534;28;20375;-70
2021/12/07 06:15:16;;;;;;;5.22;1.58;;;1.90;99.90;;;;;;4994034;28;20026;-75
2021/12/07 06:17:42;;;;;;;;;;;2.00;99.90;;;;;;4994760;28;20153;-70
2021/12/07 06:20:08;;;;;;;4.68;1.42;;;2.00;99.90;;;;;;4994358;28;19996;-70
2021/12/07 06:22:34;;;;;;;5.40;1.20;;;2.00;99.90;;;;;;4994872;28;20045;-72
2021/12/07 06:25:00;;;;;;;9.43;1.60;;;2.00;99.90;;;;;;4993747;28;20031;-70
2021/12/07 06:27:26;;;;;;;7.13;1.70;;;2.00;99.90;;;;;;4995007;28;20062;-70
2021/12/07 06:29:57;;;;;;;5.70;1.23;;;2.10;99.90;;;;;;4994574;28;20058;-71
2021/12/07 06:32:24;;;;;;;9.25;1.63;;;2.10;99.90;;;;;;5003403;28;20044;-70
2021/12/07 06:34:50;;;;;;;8.13;1.30;;;2.10;99.90;;;;;;5014593;28;20126;-73
2021/12/07 06:37:16;;;;;;;8.02;1.80;;;2.20;99.90;;;;;;5013216;28;20084;-70
2021/12/07 06:39:41;;;;;;;6.80;1.50;;;2.20;99.90;;;;;;5014197;28;20054;-71
2021/12/07 06:42:07;;;;;;;8.60;3.17;;;2.30;99.90;;;;;;5013282;28;20040;-70
2021/12/07 06:44:33;;;;;;;4.57;1.45;;;2.20;99.90;;;;;;5013910;28;20029;-70
2021/12/07 06:46:58;;;;;;;8.02;1.65;;;2.20;99.90;;;;;;5013311;28;20056;-70
2021/12/07 06:49:24;;;;;;;7.38;1.65;;;2.20;99.90;;;;;;5013804;28;20530;-70
2021/12/07 06:51:50;;;;;;;5.70;1.38;;;2.30;99.90;;;;;;5013718;28;20466;-70
2021/12/07 06:54:16;;;;;;;3.72;1.40;;;2.30;99.90;;;;;;5012801;28;20026;-70
2021/12/07 06:56:42;;;;;;;8.30;1.52;;;2.30;99.90;;;;;;5014192;28;20048;-69
2021/12/07 06:59:08;;;;;;;5.60;1.90;;;2.30;99.90;;;;;;5001400;28;20037;-68
2021/12/07 07:01:35;;;;;;;10.73;1.85;;;2.30;99.90;;;;;;4994682;28;20038;-71
2021/12/07 07:04:01;;;;;;;8.35;1.80;;;2.40;99.90;;;;;;5012723;28;20034;-71
2021/12/07 07:06:27;;;;;;;9.48;2.42;;;2.40;99.90;;;;;;5014997;28;20483;-73
2021/12/07 07:08:59;;;;;;;5.68;1.52;;;2.40;99.90;;;;;;5018692;28;20033;-72
2021/12/07 07:11:24;;;;;;;9.73;1.90;;;2.40;99.90;;;;;;5019717;28;20049;-72
2021/12/07 07:13:50;;;;;;;8.30;2.15;;;2.40;99.90;;;;;;5012192;28;20116;-72
2021/12/07 07:16:16;;;;;;;9.00;1.80;;;2.40;99.90;;;;;;5012695;28;20028;-72
2021/12/07 07:18:42;;;;;;;5.90;2.90;;;2.50;99.90;;;;;;5013408;28;20036;-71
2021/12/07 07:21:08;;;;;;;10.30;2.08;;;2.40;99.90;;;;;;5012399;28;20053;-70
2021/12/07 07:23:34;;;;;;;10.23;1.95;;;2.50;99.90;;;;;;5012959;28;20117;-71
2021/12/07 07:26:00;;;;;;;9.90;1.73;;;2.40;99.90;;;;;;5012391;28;20482;-72
2021/12/07 07:28:30;;;;;;;10.43;2.22;;;2.30;99.90;;;;;;5013150;28;20029;-72
2021/12/07 07:30:57;;;;;;;6.70;1.95;;;2.30;99.90;;;;;;5012855;28;20033;-74
2021/12/07 07:33:24;;;;;;;4.55;2.00;;;2.30;99.90;;;;;;5012444;28;20083;-71
2021/12/07 07:35:50;;;;;;;6.38;1.52;;;2.30;99.90;;;;;;5013151;28;20029;-70
2021/12/07 07:38:16;;;;;;;9.00;1.83;;;2.40;99.90;;;;;;5012292;28;20105;-72
2021/12/07 07:40:46;;;;;;;7.30;2.05;;;2.40;99.90;;;;;;5012235;28;20054;-73
2021/12/07 07:43:13;;;;;;;;;;;2.40;99.90;;;;;;5011475;28;20077;-73
2021/12/07 07:45:39;;;;;;;10.73;2.08;;;2.40;99.90;;;;;;5012432;28;20000;-72
2021/12/07 07:48:05;;;;;;;8.40;1.92;;;2.50;99.90;;;;;;5012049;28;20124;-74
2021/12/07 07:50:31;;;;;;;5.55;1.50;;;2.40;99.90;;;;;;5012772;28;20033;-73
2021/12/07 07:52:58;;;;;;;7.47;1.67;;;2.40;99.90;;;;;;5012123;28;20050;-76
2021/12/07 07:55:24;;;;;;;6.22;2.03;;;2.40;99.90;;;;;;5012798;28;20382;-74
2021/12/07 07:57:50;;;;;;;6.80;1.98;;;2.50;99.90;;;;;;5011939;28;20032;-72
2021/12/07 08:00:18;;;;;;;4.70;2.10;;;2.40;99.90;;;;;;4991428;28;20086;-71
2021/12/07 08:02:45;;;;;;;13.80;2.47;;;2.50;99.90;;;;;;4992362;28;20382;-71
2021/12/07 08:05:12;;;;;;;7.50;1.73;;;2.60;99.90;;;;;;4992038;28;20070;-70
2021/12/07 08:07:39;;;;;;;7.00;1.65;;;2.60;99.90;;;;;;4991656;28;20026;-70
2021/12/07 08:10:08;;;;;;;7.85;1.52;;;2.70;99.90;;;;;;4991869;28;20034;-70
2021/12/07 08:12:35;;;;;;;9.23;1.60;;;2.70;99.90;;;;;;4993072;28;20038;-70
2021/12/07 08:15:01;;;;;;;7.35;1.55;;;2.80;99.90;;;;;;4992097;28;20043;-70
2021/12/07 08:17:27;;;;;;;7.45;1.48;;;2.90;99.90;;;;;;4992873;28;20038;-71
2021/12/07 08:19:54;;;;;;;6.18;1.58;;;2.90;99.90;;;;;;4992607;28;20026;-70
2021/12/07 08:22:19;;;;;;;7.13;1.65;;;3.00;99.90;;;;;;4991960;28;20034;-70
2021/12/07 08:24:45;;;;;;;4.15;1.30;;;3.10;99.90;;;;;;5005614;28;20021;-71
2021/12/07 08:27:12;;;;;;;9.98;1.70;;;3.20;99.90;;;;;;5030995;28;20116;-70
2021/12/07 08:29:38;;;;;;;8.35;1.50;;;3.30;99.90;;;;;;5031581;28;20026;-70
2021/12/07 08:32:04;;;;;;;5.25;1.08;;;3.30;99.90;;;;;;5019375;28;20109;-70
2021/12/07 08:34:30;;;;;;;8.85;1.67;;;3.40;99.90;;;;;;5030561;28;20040;-70
2021/12/07 08:37:02;;;;;;;6.28;1.42;;;3.60;99.90;;;;;;5031023;28;20026;-70
2021/12/07 08:39:28;;;;;;;7.95;2.05;;;3.70;99.90;;;;;;5023237;28;20026;-71
2021/12/07 08:41:53;;;;;;;10.05;1.98;;;3.70;99.90;;;;;;5010284;28;20176;-71
2021/12/07 08:44:19;;;;;;;13.57;2.85;;;3.70;99.90;;;;;;5010817;28;20029;-70
2021/12/07 08:46:45;;;;;;;6.28;1.33;;;3.90;99.90;;;;;;5011754;28;20537;-71
2021/12/07 08:49:12;;;;;;;6.10;1.98;;;3.90;99.90;;;;;;5011386;28;20085;-71
2021/12/07 08:51:39;;;;;;;8.75;1.50;;;3.90;99.90;;;;;;5011482;28;20076;-71
2021/12/07 08:59:52;;;;;;;6.78;1.80;;;4.10;99.90;;;;;;4996488;28;20562;-70
2021/12/07 09:02:21;;;;;;;9.73;1.60;;;4.10;99.90;;;;;;4990301;28;20235;-71
2021/12/07 09:04:48;;;;;;;9.30;1.50;;;4.20;99.90;;;;;;5011447;28;20489;-70
2021/12/07 09:07:15;;;;;;;5.38;1.20;;;4.10;99.90;;;;;;5010607;28;20026;-71
2021/12/07 09:09:43;;;;;;;9.43;1.48;;;4.20;99.90;;;;;;5011495;28;20085;-71
2021/12/07 09:12:10;;;;;;;8.70;1.45;;;4.30;99.90;;;;;;5011202;28;20037;-71
2021/12/07 09:14:37;;;;;;;5.25;1.20;;;4.30;99.90;;;;;;5014579;28;20025;-71
2021/12/07 09:17:05;;;;;;;6.78;1.50;;;4.30;99.90;;;;;;5014630;28;20092;-71
2021/12/07 09:19:32;;;;;;;9.77;1.42;;;4.40;99.90;;;;;;5015002;28;20034;-70
2021/12/07 09:22:05;;;;;;;9.35;1.45;;;4.50;99.90;;;;;;5014803;28;20037;-71
2021/12/07 09:24:31;;;;;;;4.22;1.13;;;4.60;99.90;;;;;;5015344;28;20061;-71
2021/12/07 09:26:57;;;;;;;6.88;1.35;;;4.60;99.90;;;;;;5014393;28;20064;-71
2021/12/07 09:29:24;;;;;;;7.45;1.60;;;;;;;;;;5014134;28;20482;-70
2021/12/07 09:31:50;;;;;;;9.90;2.30;;;4.80;99.90;;;;;;5014578;28;20468;-70
2021/12/07 09:34:16;;;;;;;10.68;1.98;;;4.70;99.90;;;;;;5014347;28;20041;-71
2021/12/07 09:36:45;;;;;;;8.63;1.08;;;4.70;99.90;;;;;;5015132;28;20034;-71
2021/12/07 09:39:14;;;;;;;6.00;1.40;;;4.60;99.90;;;;;;5014383;28;20112;-71
2021/12/07 09:41:40;;;;;;;8.98;1.30;;;4.60;99.90;;;;;;5015420;28;20026;-70
2021/12/07 09:44:06;;;;;;;10.73;1.40;;;4.60;99.90;;;;;;5014318;28;20034;-71
2021/12/07 09:46:33;;;;;;;4.50;1.15;;;4.60;99.90;;;;;;5015033;28;20053;-71
2021/12/07 09:49:06;;;;;;;8.80;1.90;;;4.60;99.90;;;;;;5014975;28;20566;-71
2021/12/07 09:51:36;;;;;;;7.78;1.27;;;4.70;99.90;;;;;;5014510;28;20446;-70
2021/12/07 09:54:04;;;;;;;6.30;1.60;;;4.70;99.90;;;;;;5013940;28;20061;-71
2021/12/07 09:56:30;;;;;;;9.23;1.52;;;4.70;99.90;;;;;;5014888;28;20069;-71
2021/12/07 09:58:59;;;;;;;10.43;2.47;;;4.80;99.90;;;;;;5004842;28;20031;-71
2021/12/07 10:01:28;;;;;;;8.30;1.35;;;4.80;99.90;;;;;;5005604;28;20023;-70
2021/12/07 10:03:54;;;;;;;7.00;1.33;;;;;;;;;;5014853;28;20526;-71
2021/12/07 10:06:20;;;;;;;7.07;1.85;;;5.20;99.90;;;;;;5013630;28;20018;-71
2021/12/07 10:08:47;;;;;;;5.22;1.08;;;5.10;99.90;;;;;;5014695;28;20030;-70
2021/12/07 10:11:14;;;;;;;4.45;0.82;;;5.20;99.90;;;;;;5013737;28;20096;-70
2021/12/07 10:13:42;;;;;;;5.75;1.13;;;5.30;99.90;;;;;;5014725;28;20038;-70
2021/12/07 10:16:10;;;;;;;4.93;1.27;;;5.30;99.90;;;;;;5013850;28;20053;-71
2021/12/07 10:18:38;;;;;;;4.22;1.02;;;5.30;99.90;;;;;;5014411;28;20038;-70
2021/12/07 10:21:06;;;;;;;7.15;1.02;;;5.30;99.90;;;;;;5013609;28;20026;-70
2021/12/07 10:23:40;;;;;;;6.50;1.05;;;5.30;99.90;;;;;;5013711;28;20045;-70
2021/12/07 10:26:16;;;;;;;8.90;1.20;;;5.30;99.90;;;;;;5013453;28;20105;-70
2021/12/07 10:28:57;;;;;;;3.90;0.88;;;5.30;99.90;;;;;;5013373;28;20022;-70
2021/12/07 10:31:28;;;;;;;6.07;1.30;;;5.30;99.90;;;;;;5013216;28;20152;-70
2021/12/07 10:34:00;;;;;;;8.50;1.92;;;5.40;99.90;;;;;;5014112;28;20042;-71
2021/12/07 10:36:47;;;;;;;5.85;1.70;;;5.50;99.90;;;;;;5013729;28;20022;-71
2021/12/07 10:39:22;;;;;;;6.50;0.95;;;5.60;99.90;;;;;;5013236;28;20026;-71
2021/12/07 10:42:00;;;;;;;2.53;0.88;;;5.50;99.90;;;;;;5003631;28;20025;-72
2021/12/07 10:44:32;;;;;;;6.55;1.25;;;5.40;99.90;;;;;;5013926;28;20121;-71
2021/12/07 10:47:06;;;;;;;2.55;0.90;;;5.30;99.90;;;;;;5014133;28;20115;-71
2021/12/07 10:49:46;;;;;;;8.40;1.38;;;5.10;99.90;;;;;;5013715;28;20113;-71
2021/12/07 10:52:34;;;;;;;4.72;1.00;;;5.00;99.90;;;;;;5012928;28;20034;-71
2021/12/07 10:55:15;;;;;;;7.82;1.33;;;5.00;99.90;;;;;;5013601;28;20034;-71
2021/12/07 10:57:51;;;;;;;6.63;1.08;;;5.20;99.90;;;;;;5013635;28;20076;-70
2021/12/07 11:00:36;;;;;;;6.35;1.63;;;5.40;99.90;;;;;;4994508;28;20109;-72
2021/12/07 11:03:06;;;;;;;11.45;1.30;;;5.60;99.90;;;;;;5013372;28;20044;-71
2021/12/07 11:05:54;;;;;;;8.68;1.15;;;5.50;99.90;;;;;;5013492;28;20018;-71
2021/12/07 11:08:28;;;;;;;10.45;1.13;;;5.60;99.90;;;;;;5012377;28;20092;-71
2021/12/07 11:10:55;;;;;;;8.07;1.55;;;5.70;99.90;;;;;;5013579;28;20033;-71
2021/12/07 11:13:34;;;;;;;6.78;1.05;;;5.70;99.50;;;;;;5012469;28;20034;-72
2021/12/07 11:16:07;;;;;;;5.63;1.05;;;5.70;99.70;;;;;;5013654;28;20088;-71
2021/12/07 11:18:48;;;;;;;8.05;1.35;;;5.80;99.90;;;;;;5013135;28;20037;-71
2021/12/07 11:21:17;;;;;;;11.32;1.08;;;5.80;99.90;;;;;;5012488;28;20080;-71
2021/12/07 11:23:56;;;;;;;3.80;1.00;;;5.80;97.30;;;;;;5012975;28;20026;-71
2021/12/07 11:31:50;;;;;;;5.95;0.75;;;5.90;95.60;;;;;;5012586;28;20037;-71
2021/12/07 11:34:17;;;;;;;6.20;0.60;;;5.90;94.80;;;;;;5011951;28;20115;-71
2021/12/07 11:36:52;;;;;;;6.13;1.23;;;5.90;95.20;;;;;;5012467;28;20065;-71
2021/12/07 11:39:35;;;;;;;3.65;0.80;;;5.80;97.00;;;;;;5012186;28;20075;-70
2021/12/07 11:42:06;;;;;;;4.75;0.85;;;5.70;94.20;;;;;;5012565;28;20394;-71
2021/12/07 11:44:35;;;;;;;7.18;0.88;;;5.60;95.50;;;;;;5012739;28;20486;-71
2021/12/07 11:47:03;;;;;;;6.93;1.08;;;5.70;95.00;;;;;;5012858;28;20053;-71
2021/12/07 11:49:32;;;;;;;7.90;0.90;;;5.70;95.10;;;;;;5012131;28;20037;-69
2021/12/07 11:52:05;;;;;;;3.78;1.10;;;5.90;94.90;;;;;;5012472;28;20378;-70
2021/12/07 11:54:40;;;;;;;3.53;0.70;;;6.00;95.30;;;;;;5011827;28;20492;-71
2021/12/07 11:57:16;;;;;;;5.78;1.15;;;6.20;94.10;;;;;;5012246;28;20480;-70
2021/12/07 11:59:43;;;;;;;6.88;1.05;;;6.10;94.40;;;;;;4996712;28;20026;-70
2021/12/07 12:02:10;;;;;;;5.60;1.05;;;6.20;94.60;;;;;;5008635;28;20415;-71
2021/12/07 12:04:38;;;;;;;7.07;1.35;;;;;;;;;;5011907;28;20472;-70
2021/12/07 12:07:08;;;;;;;11.32;1.20;;;;;;;;;;5012473;28;20066;-70
2021/12/07 12:09:34;;;;;;;6.38;1.05;;;6.30;94.80;;;;;;5011444;28;20025;-70
2021/12/07 12:12:18;;;;;;;10.15;1.10;;;6.20;95.10;;;;;;5012343;28;20117;-69
2021/12/07 12:15:06;;;;;;;7.38;1.20;;;6.20;95.10;;;;;;5012275;28;20041;-70
2021/12/07 12:17:51;;;;;;;3.65;1.00;;;6.10;97.00;;;;;;5011284;28;20038;-70
2021/12/07 12:20:20;;;;;;;8.93;1.63;;;6.10;98.10;;;;;;5011701;28;20030;-70
2021/12/07 12:23:21;;;;;;;8.40;1.83;;;6.00;98.90;;;;;;5011961;28;20540;-70
2021/12/07 12:25:59;;;;;;;6.80;1.40;;;5.90;99.30;;;;;;5010215;28;20104;-70
2021/12/07 12:28:32;;;;;;;5.97;1.60;;;5.80;99.90;;;;;;5011146;28;20033;-71
2021/12/07 12:30:58;;;;;;;6.95;1.73;;;5.90;99.90;;;;;;5010550;28;20032;-70
2021/12/07 12:33:23;;;;;;;6.47;2.17;;;6.10;99.80;;;;;;5011007;28;20026;-70
2021/12/07 12:35:54;;;;;;;7.53;2.03;;;6.30;99.60;;;;;;5011990;28;20034;-70
2021/12/07 12:38:19;;;;;;;6.82;1.58;;;6.50;98.50;;;;;;5011133;28;20039;-70
2021/12/07 12:40:53;;;;;;;10.82;1.77;;;6.60;97.60;;;;;;5011781;28;20022;-70
2021/12/07 12:43:37;;;;;;;3.08;0.98;;;6.70;97.20;;;;;;5010368;28;20038;-70
2021/12/07 12:46:04;;;;;;;4.75;1.40;;;6.70;96.60;;;;;;5011349;28;20046;-70
2021/12/07 12:48:32;;;;;;;8.32;1.50;;;6.80;96.30;;;;;;5010918;28;20041;-70
2021/12/07 12:50:58;;;;;;;4.40;1.05;;;6.80;96.50;;;;;;5011837;28;20048;-70
2021/12/07 12:53:32;;;;;;;10.38;1.48;;;7.00;99.90;;;;;;5010452;28;20050;-70
2021/12/07 12:56:00;;;;;;;8.50;1.45;;;6.90;99.90;;;;;;5011710;28;20029;-70
2021/12/07 12:58:30;;;;;;;8.63;1.90;;;7.00;99.90;;;;;;5005639;28;20030;-70
2021/12/07 13:01:32;;;;;;;17.23;3.08;;;7.10;95.90;;;;;;4992212;28;20088;-70
2021/12/07 13:04:04;;;;;;;5.57;1.30;;;7.20;95.20;;;;;;4992349;28;20045;-70
2021/12/07 13:06:33;;;;;;;9.68;1.40;;;7.20;91.20;;;;;;4991549;28;20062;-69
2021/12/07 13:09:09;;;;;;;7.10;0.90;;;7.20;90.30;;;;;;4992187;28;20026;-69
2021/12/07 13:11:50;;;;;;;5.88;1.30;;;7.00;91.10;;;;;;4991380;28;20026;-70
2021/12/07 13:14:22;;;;;;;7.63;0.98;;;6.90;91.30;;;;;;4991149;28;20073;-70
2021/12/07 13:17:01;;;;;;;4.50;0.77;;;6.90;91.10;;;;;;4992082;28;20066;-70
2021/12/07 13:19:28;;;;;;;5.55;0.85;;;6.80;90.80;;;;;;4993688;28;20027;-70
2021/12/07 13:21:56;;;;;;;5.72;1.10;;;6.70;90.90;;;;;;5007494;28;20042;-70
2021/12/07 13:24:40;;;;;;;9.15;0.98;;;6.70;91.40;;;;;;5011672;28;20048;-70
2021/12/07 13:27:15;;;;;;;6.28;1.67;;;6.70;91.70;;;;;;5011283;28;20030;-69
2021/12/07 13:29:52;;;;;;;4.65;0.93;;;6.70;91.90;;;;;;5011464;28;20534;-70
2021/12/07 13:32:19;;;;;;;5.57;1.50;;;6.80;91.20;;;;;;5010416;28;20383;-70
2021/12/07 13:34:45;;;;;;;5.55;1.10;;;6.70;91.70;;;;;;5011589;28;20022;-70
2021/12/07 13:37:18;;;;;;;3.83;0.80;;;6.70;91.80;;;;;;5011332;28;20498;-70
2021/12/07 13:39:49;;;;;;;5.40;0.95;;;6.50;92.60;;;;;;5011042;28;20029;-70
2021/12/07 13:42:18;;;;;;;10.95;1.08;;;6.40;93.00;;;;;;5010613;28;20022;-70
2021/12/07 13:44:52;;;;;;;9.48;1.30;;;6.30;94.10;;;;;;5011310;28;20116;-69
2021/12/07 13:47:40;;;;;;;8.88;1.15;;;6.30;93.80;;;;;;5010676;28;20041;-70
2021/12/07 13:50:15;;;;;;;4.75;1.23;;;6.10;94.80;;;;;;5011030;28;20030;-71
2021/12/07 13:52:44;;;;;;;8.13;1.15;;;6.00;96.00;;;;;;5010693;28;20042;-71
2021/12/07 13:55:14;;;;;;;9.52;1.92;;;5.90;96.90;;;;;;5011236;28;20493;-71
2021/12/07 13:57:41;;;;;;;5.32;1.25;;;5.70;98.10;;;;;;5011148;28;20025;-70
2021/12/07 14:00:20;;;;;;;6.03;1.13;;;5.60;99.30;;;;;;4995662;28;20033;-70
2021/12/07 14:02:55;;;;;;;6.43;1.27;;;5.50;99.90;;;;;;5014663;28;20391;-70
2021/12/07 14:05:27;;;;;;;6.50;1.40;;;5.30;99.90;;;;;;5013453;28;20026;-70
2021/12/07 14:07:55;;;;;;;9.90;2.03;;;5.20;99.90;;;;;;5014220;28;20486;-70
2021/12/07 14:10:27;;;;;;;6.22;1.10;;;5.10;99.90;;;;;;5013804;28;20040;-71
2021/12/07 14:12:54;;;;;;;3.63;1.60;;;5.00;99.90;;;;;;5013234;28;20371;-70
2021/12/07 14:15:42;;;;;;;7.15;1.42;;;4.90;99.90;;;;;;5013855;28;20038;-70
2021/12/07 14:18:13;;;;;;;3.92;1.08;;;4.80;99.90;;;;;;5014159;28;20387;-70
2021/12/07 14:20:43;;;;;;;11.32;1.40;;;4.70;99.90;;;;;;5013903;28;20018;-70
2021/12/07 14:23:32;;;;;;;;;;;4.60;99.90;;;;;;5014948;28;20037;-70
2021/12/07 14:26:04;;;;;;;6.47;1.30;;;4.50;99.90;;;;;;5014059;28;20270;-70
2021/12/07 14:28:30;;;;;;;6.65;1.23;;;4.40;99.90;;;;;;5013246;28;20036;-70
2021/12/07 14:31:48;;;;;;;3.33;1.20;;;4.40;99.90;;;;;;5013940;28;20366;-70
2021/12/07 14:34:21;;;;;;;5.70;1.90;;;4.40;99.90;;;;;;4969767;28;20050;-69
2021/12/07 14:36:57;;;;;;;7.47;1.27;;;4.30;99.90;;;;;;5014100;28;20022;-70
2021/12/07 14:39:32;;;;;;;8.15;1.40;;;4.30;99.90;;;;;;5013325;28;20030;-71
2021/12/07 14:42:00;;;;;;;5.85;1.55;;;4.30;99.90;;;;;;5013914;28;20081;-70
2021/12/07 14:44:30;;;;;;;12.35;1.70;;;4.20;99.90;;;;;;5012832;28;20171;-69
2021/12/07 14:47:00;;;;;;;6.93;2.15;;;4.20;99.90;;;;;;5014162;28;20049;-69
2021/12/07 14:49:26;;;;;;;7.47;1.75;;;4.10;99.90;;;;;;5013197;28;20490;-70
2021/12/07 14:51:52;;;;;;;5.35;1.70;;;4.10;99.90;;;;;;5013497;28;20545;-70